sensor_id;sensor_type;location;lat;lon;timestamp;temperature;humidity
27870;DHT22;15225;50.730;4.244;2024-01-30T16:52:23;9.70;1.00
27870;DHT22;15225;50.730;4.244;2024-01-30T16:54:51;9.60;1.00
27870;DHT22;15225;50.730;4.244;2024-01-30T16:57:17;9.90;1.00
27870;DHT22;15225;50.730;4.244;2024-01-30T16:59:43;10.30;99.90
27870;DHT22;15225;50.730;4.244;2024-01-30T17:02:08;10.60;99.90
27870;DHT22;15225;50.730;4.244;2024-01-30T17:04:35;11.00;99.90
27870;DHT22;15225;50.730;4.244;2024-01-30T17:07:01;11.20;89.90
27870;DHT22;15225;50.730;4.244;2024-01-30T17:09:28;11.50;1.00
27870;DHT22;15225;50.730;4.244;2024-01-30T17:11:54;11.60;1.00
27870;DHT22;15225;50.730;4.244;2024-01-30T17:14:20;11.70;99.90
27870;DHT22;15225;50.730;4.244;2024-01-30T17:16:47;11.80;99.90
27870;DHT22;15225;50.730;4.244;2024-01-30T17:19:13;11.90;99.90
27870;DHT22;15225;50.730;4.244;2024-01-30T17:21:40;12.00;99.90
27870;DHT22;15225;50.730;4.244;2024-01-30T17:24:06;12.10;1.00
27870;DHT22;15225;50.730;4.244;2024-01-30T17:26:32;12.10;1.00
27870;DHT22;15225;50.730;4.244;2024-01-30T17:28:58;12.10;5.10
27870;DHT22;15225;50.730;4.244;2024-01-30T17:31:24;12.10;38.80
27870;DHT22;15225;50.730;4.244;2024-01-30T17:33:49;12.00;99.90
27870;DHT22;15225;50.730;4.244;2024-01-30T17:36:22;12.00;13.90
27870;DHT22;15225;50.730;4.244;2024-01-30T17:38:48;11.90;99.90
27870;DHT22;15225;50.730;4.244;2024-01-30T17:41:14;11.80;99.90
27870;DHT22;15225;50.730;4.244;2024-01-30T17:43:39;11.70;1.00
27870;DHT22;15225;50.730;4.244;2024-01-30T17:46:05;11.80;99.90
27870;DHT22;15225;50.730;4.244;2024-01-30T17:48:31;11.70;99.90
27870;DHT22;15225;50.730;4.244;2024-01-30T17:50:57;11.60;1.00
27870;DHT22;15225;50.730;4.244;2024-01-30T17:53:24;11.50;1.00
27870;DHT22;15225;50.730;4.244;2024-01-30T17:55:50;11.50;20.00
27870;DHT22;15225;50.730;4.244;2024-01-30T17:58:15;11.40;99.90
27870;DHT22;15225;50.730;4.244;2024-01-30T18:00:41;11.50;99.90
27870;DHT22;15225;50.730;4.244;2024-01-30T18:03:07;11.50;99.90
27870;DHT22;15225;50.730;4.244;2024-01-30T18:05:33;11.40;99.90
27870;DHT22;15225;50.730;4.244;2024-01-30T18:07:58;11.40;99.90
27870;DHT22;15225;50.730;4.244;2024-01-30T18:10:24;11.40;99.90
27870;DHT22;15225;50.730;4.244;2024-01-30T18:12:50;11.40;99.90
27870;DHT22;15225;50.730;4.244;2024-01-30T18:15:19;11.50;99.90
27870;DHT22;15225;50.730;4.244;2024-01-30T18:17:45;11.50;99.90
27870;DHT22;15225;50.730;4.244;2024-01-30T18:20:10;11.50;99.90
27870;DHT22;15225;50.730;4.244;2024-01-30T18:22:36;11.60;99.90
27870;DHT22;15225;50.730;4.244;2024-01-30T18:25:06;11.60;99.90
27870;DHT22;15225;50.730;4.244;2024-01-30T18:27:32;11.50;99.90
27870;DHT22;15225;50.730;4.244;2024-01-30T18:29:57;11.40;99.90
27870;DHT22;15225;50.730;4.244;2024-01-30T18:32:23;11.30;1.00
27870;DHT22;15225;50.730;4.244;2024-01-30T18:34:49;11.30;1.00
27870;DHT22;15225;50.730;4.244;2024-01-30T18:37:14;11.30;1.00
27870;DHT22;15225;50.730;4.244;2024-01-30T18:39:40;11.30;1.00
27870;DHT22;15225;50.730;4.244;2024-01-30T18:42:08;11.30;1.00
